Time;durP1;ratioP1;P1;durP2;ratioP2;P2;SDS_P1;SDS_P2;PMS_P1;PMS_P2;Temp;Humidity;BMP_temperature;BMP_pressure;BME280_temperature;BME280_humidity;BME280_pressure;Samples;Min_cycle;Max_cycle;Signal;HPM_P1;HPM_P2
2021/10/23 00:06:45;;;;;;;1.35;1.15;;;4.70;99.90;;;;;;7388517;19;20337;-80
2021/10/23 00:10:01;;;;;;;2.17;1.48;;;4.70;99.90;;;;;;7378046;19;20378;-80
2021/10/23 00:36:17;;;;;;;2.00;1.20;;;4.90;99.90;;;;;;7433189;19;20374;-80
2021/10/23 00:39:45;;;;;;;1.80;1.30;;;4.70;99.90;;;;;;7429297;19;20370;-79
2021/10/23 00:43:15;;;;;;;1.65;1.42;;;4.90;99.90;;;;;;7429767;19;20367;-80
2021/10/23 01:12:06;;;;;;;;;;;;;;;;;;;;;
2021/10/23 01:54:26;;;;;;;1.90;1.40;;;4.90;99.90;;;;;;7372435;19;20343;-79
2021/10/23 01:57:39;;;;;;;2.35;1.50;;;5.10;99.90;;;;;;7266924;19;2004354;-80
2021/10/23 02:36:37;;;;;;;3.05;1.40;;;4.90;99.90;;;;;;7407204;19;20357;-80
2021/10/23 02:40:10;;;;;;;5.93;1.95;;;4.80;99.90;;;;;;7369949;19;20372;-79
2021/10/23 02:44:03;;;;;;;1.45;1.30;;;4.90;99.90;;;;;;7372818;19;20356;-79
2021/10/23 02:47:44;;;;;;;1.27;1.15;;;4.80;99.90;;;;;;7426292;19;20969;-80
2021/10/23 02:53:49;;;;;;;2.33;1.40;;;4.80;99.90;;;;;;7335489;19;20333;-80
2021/10/23 03:01:02;;;;;;;1.80;1.20;;;4.80;99.90;;;;;;7426458;19;20344;-79
2021/10/23 03:11:29;;;;;;;1.40;1.20;;;4.70;99.90;;;;;;7425780;19;20340;-79
2021/10/23 03:27:02;;;;;;;2.23;1.47;;;4.60;99.90;;;;;;7346039;19;20328;-81
2021/10/23 03:33:41;;;;;;;2.28;1.20;;;4.70;99.90;;;;;;7433357;19;20360;-80
2021/10/23 03:37:39;;;;;;;7.35;1.70;;;4.60;99.90;;;;;;7431139;19;20339;-80
2021/10/23 03:47:04;;;;;;;3.17;1.83;;;4.50;99.90;;;;;;7379933;19;20344;-80
2021/10/23 04:18:46;;;;;;;2.70;1.50;;;4.50;99.90;;;;;;7427662;19;20325;-80
2021/10/23 04:22:23;;;;;;;1.27;1.13;;;4.50;99.90;;;;;;7433429;19;20366;-80
2021/10/23 04:51:45;;;;;;;1.63;1.38;;;4.20;99.90;;;;;;7430088;19;20404;-80
2021/10/23 05:18:08;;;;;;;5.20;1.40;;;4.70;99.90;;;;;;7384281;19;20332;-81
2021/10/23 05:21:12;;;;;;;2.13;1.33;;;4.70;99.90;;;;;;7427142;19;20348;-78
2021/10/23 05:53:00;;;;;;;6.73;1.90;;;4.70;99.90;;;;;;7387082;19;20344;-81
2021/10/23 06:05:16;;;;;;;1.63;1.42;;;4.80;99.90;;;;;;7430157;19;20425;-81
2021/10/23 06:18:49;;;;;;;1.30;1.20;;;4.90;99.90;;;;;;7387025;19;20408;-79
2021/10/23 06:21:15;;;;;;;1.80;1.10;;;4.90;99.90;;;;;;7386381;19;20375;-80
2021/10/23 06:23:41;;;;;;;1.88;1.38;;;5.10;99.90;;;;;;7383802;19;20316;-79
2021/10/23 06:26:07;;;;;;;1.88;1.48;;;5.00;99.90;;;;;;7387998;19;20331;-80
2021/10/23 06:28:36;;;;;;;2.35;1.35;;;5.00;99.90;;;;;;7387526;19;20352;-80
2021/10/23 06:31:06;;;;;;;1.48;1.38;;;5.00;99.90;;;;;;7387268;19;20407;-80
2021/10/23 06:33:32;;;;;;;2.47;1.42;;;5.10;99.90;;;;;;7370136;19;20313;-80
2021/10/23 06:35:58;;;;;;;1.60;1.40;;;5.10;99.90;;;;;;7390723;19;20911;-80
2021/10/23 06:38:24;;;;;;;1.50;1.40;;;5.20;99.90;;;;;;7385167;19;20357;-81
2021/10/23 06:40:50;;;;;;;2.80;1.50;;;5.20;99.90;;;;;;7387151;19;20320;-79
2021/10/23 06:43:16;;;;;;;4.80;1.65;;;5.20;99.90;;;;;;7389383;19;20325;-80
2021/10/23 07:02:52;;;;;;;3.20;1.30;;;5.20;99.90;;;;;;7393683;19;20327;-80
2021/10/23 07:05:20;;;;;;;4.05;1.40;;;5.30;99.90;;;;;;7380224;19;20317;-82
2021/10/23 07:07:46;;;;;;;3.90;1.50;;;5.40;99.90;;;;;;7379949;19;20962;-82
2021/10/23 07:10:12;;;;;;;1.95;1.45;;;5.50;99.90;;;;;;7383548;19;20344;-82
2021/10/23 07:12:37;;;;;;;3.40;1.50;;;5.70;99.90;;;;;;7380649;19;20346;-80
2021/10/23 07:15:03;;;;;;;2.57;1.43;;;5.70;99.90;;;;;;7379854;19;20301;-82
2021/10/23 07:17:29;;;;;;;2.80;1.33;;;5.80;99.90;;;;;;7378793;19;20674;-79
2021/10/23 07:19:55;;;;;;;2.47;1.45;;;5.80;99.90;;;;;;7381578;19;20341;-79
2021/10/23 07:22:21;;;;;;;2.88;1.42;;;5.90;99.90;;;;;;7380972;19;21152;-80
2021/10/23 07:24:46;;;;;;;1.80;1.50;;;5.90;99.90;;;;;;7379407;19;25859;-80
2021/10/23 07:27:12;;;;;;;3.03;1.90;;;5.90;99.90;;;;;;7380340;19;20308;-81
2021/10/23 07:29:38;;;;;;;5.65;2.20;;;6.00;99.90;;;;;;7385022;19;20333;-80
2021/10/23 07:32:05;;;;;;;4.13;1.80;;;6.00;99.90;;;;;;7382543;19;20333;-81
2021/10/23 07:34:34;;;;;;;2.60;1.40;;;6.00;99.90;;;;;;7381847;19;20320;-80
2021/10/23 07:37:02;;;;;;;3.55;1.80;;;6.10;99.90;;;;;;7384873;19;20313;-80
2021/10/23 07:39:29;;;;;;;1.87;1.50;;;6.10;99.90;;;;;;7383556;19;20347;-80
2021/10/23 07:41:55;;;;;;;2.20;1.80;;;6.20;99.90;;;;;;7382173;19;20321;-79
2021/10/23 07:44:20;;;;;;;3.72;2.20;;;6.10;99.90;;;;;;7380734;19;20312;-79
2021/10/23 07:46:46;;;;;;;1.83;1.30;;;6.10;99.90;;;;;;7379520;19;20328;-82
2021/10/23 07:49:12;;;;;;;2.88;1.35;;;6.20;99.90;;;;;;7380467;19;20649;-81
2021/10/23 07:51:37;;;;;;;5.20;1.80;;;6.20;99.90;;;;;;7379399;19;20313;-79
2021/10/23 07:54:09;;;;;;;1.90;1.60;;;6.30;99.90;;;;;;7390303;19;20301;-79
2021/10/23 07:56:37;;;;;;;1.75;1.48;;;6.50;99.90;;;;;;7385978;19;20347;-80
2021/10/23 07:59:03;;;;;;;2.80;1.38;;;6.60;99.90;;;;;;7392924;19;20332;-80
2021/10/23 08:01:29;;;;;;;2.70;1.60;;;6.60;99.90;;;;;;7389313;19;20807;-80
2021/10/23 08:03:55;;;;;;;2.45;1.50;;;6.70;99.90;;;;;;7387528;19;20340;-80
2021/10/23 08:06:21;;;;;;;2.08;1.60;;;6.70;99.90;;;;;;7394533;19;20334;-79
2021/10/23 08:08:47;;;;;;;2.20;1.63;;;6.60;99.90;;;;;;7393401;19;20316;-80
2021/10/23 08:11:12;;;;;;;1.52;1.23;;;6.60;99.90;;;;;;7396228;19;20687;-79
2021/10/23 08:13:38;;;;;;;5.13;1.57;;;6.50;99.90;;;;;;7399191;19;20311;-80
2021/10/23 08:16:04;;;;;;;2.65;1.50;;;6.50;99.90;;;;;;7367932;19;20920;-80
2021/10/23 08:18:37;;;;;;;3.60;1.63;;;6.50;99.90;;;;;;7387592;19;20333;-79
2021/10/23 08:21:03;;;;;;;2.20;1.38;;;6.60;99.90;;;;;;7388776;19;20619;-80
2021/10/23 08:23:29;;;;;;;2.17;1.50;;;6.60;99.90;;;;;;7389192;19;20308;-80
2021/10/23 08:25:55;;;;;;;3.50;2.00;;;6.70;99.90;;;;;;7388812;19;20878;-79
2021/10/23 08:28:22;;;;;;;7.60;1.95;;;6.70;99.90;;;;;;7396301;19;20337;-80
2021/10/23 08:30:48;;;;;;;2.35;1.60;;;7.00;99.90;;;;;;7379659;19;20336;-80
2021/10/23 08:33:13;;;;;;;2.10;1.67;;;6.90;99.90;;;;;;7400591;19;20341;-80
2021/10/23 08:35:40;;;;;;;1.63;1.52;;;7.00;99.90;;;;;;7396702;19;20886;-80
2021/10/23 08:38:18;;;;;;;2.78;1.85;;;7.10;99.90;;;;;;7396024;19;20392;-81
2021/10/23 08:54:14;;;;;;;3.03;1.65;;;7.40;99.90;;;;;;7396978;19;20779;-81
2021/10/23 08:57:25;;;;;;;2.85;1.55;;;7.40;99.90;;;;;;7411441;19;20393;-80
2021/10/23 09:00:32;;;;;;;4.72;1.35;;;7.40;99.90;;;;;;7258364;19;2004118;-80
2021/10/23 09:03:13;;;;;;;2.88;1.58;;;7.40;99.90;;;;;;7233500;19;2004678;-80
2021/10/23 09:05:40;;;;;;;2.45;1.58;;;7.50;99.90;;;;;;7360107;19;20311;-80
2021/10/23 09:08:17;;;;;;;1.95;1.50;;;7.70;99.90;;;;;;7322820;19;20320;-80
2021/10/23 09:10:52;;;;;;;2.80;1.55;;;7.80;99.90;;;;;;7365428;19;20850;-80
2021/10/23 09:13:31;;;;;;;3.17;1.60;;;8.00;99.90;;;;;;7348718;19;20344;-81
2021/10/23 09:15:58;;;;;;;2.58;1.55;;;8.00;99.90;;;;;;7352761;19;20348;-80
2021/10/23 09:18:44;;;;;;;5.00;1.73;;;8.10;99.90;;;;;;7352883;19;20325;-79
2021/10/23 09:21:20;;;;;;;3.60;2.03;;;8.20;99.90;;;;;;7367782;19;20348;-77
2021/10/23 09:23:48;;;;;;;1.48;1.38;;;8.30;99.90;;;;;;7383959;19;20320;-81
2021/10/23 09:26:31;;;;;;;3.63;2.07;;;8.50;99.90;;;;;;7382083;19;20860;-81
2021/10/23 09:29:23;;;;;;;2.20;1.70;;;8.40;99.90;;;;;;7261644;19;2004457;-79
2021/10/23 09:31:52;;;;;;;2.45;1.95;;;8.70;99.90;;;;;;7379598;19;20408;-80
2021/10/23 09:34:19;;;;;;;2.83;1.52;;;8.70;99.90;;;;;;7384500;19;20309;-80
2021/10/23 09:36:55;;;;;;;2.33;1.88;;;8.80;99.90;;;;;;7364685;19;20328;-81
2021/10/23 09:39:28;;;;;;;2.13;1.52;;;8.80;99.90;;;;;;7262038;19;2004661;-78
2021/10/23 09:42:04;;;;;;;2.85;1.50;;;8.70;99.90;;;;;;7258381;19;2004479;-80
2021/10/23 09:44:30;;;;;;;5.90;2.03;;;8.80;99.90;;;;;;7382195;19;20296;-79
2021/10/23 09:46:58;;;;;;;4.32;2.00;;;9.00;99.90;;;;;;7384751;19;20305;-79
2021/10/23 09:49:27;;;;;;;3.50;1.80;;;9.00;99.90;;;;;;7366034;19;20321;-79
2021/10/23 09:52:05;;;;;;;1.73;1.30;;;9.10;99.90;;;;;;7385965;19;20837;-79
2021/10/23 09:54:34;;;;;;;1.73;1.40;;;9.30;99.90;;;;;;7285624;19;2004414;-79
2021/10/23 09:57:07;;;;;;;3.70;1.60;;;9.10;99.90;;;;;;7386074;19;20321;-80
2021/10/23 10:03:04;;;;;;;1.77;1.50;;;9.30;99.90;;;;;;7349502;19;20349;-78
2021/10/23 10:05:34;;;;;;;3.15;1.63;;;9.40;99.90;;;;;;7376870;19;20348;-78
2021/10/23 10:08:22;;;;;;;3.75;1.95;;;9.50;99.90;;;;;;7369646;19;20320;-78
2021/10/23 10:10:49;;;;;;;5.57;2.08;;;9.30;99.90;;;;;;7261121;19;2004423;-78
2021/10/23 10:13:19;;;;;;;2.38;1.77;;;9.30;99.90;;;;;;7351389;19;20300;-78
2021/10/23 10:15:46;;;;;;;3.67;1.70;;;9.60;99.90;;;;;;7365999;19;20300;-78
2021/10/23 10:18:17;;;;;;;2.28;1.50;;;9.70;99.90;;;;;;7388083;19;20331;-78
2021/10/23 10:27:05;;;;;;;1.77;1.58;;;9.90;99.90;;;;;;7342927;19;20348;31
2021/10/23 10:29:42;;;;;;;2.22;1.55;;;10.20;99.90;;;;;;7366884;19;20356;-77
2021/10/23 10:42:54;;;;;;;2.65;1.90;;;10.40;99.90;;;;;;7382566;19;20653;-80
2021/10/23 10:45:37;;;;;;;3.55;2.15;;;10.40;99.90;;;;;;7378346;19;24010;-80
2021/10/23 10:48:29;;;;;;;3.83;1.70;;;10.50;99.90;;;;;;7284726;19;2004527;-80
2021/10/23 10:51:04;;;;;;;3.22;1.73;;;10.80;99.90;;;;;;7278844;19;2004317;-80
2021/10/23 10:53:34;;;;;;;2.30;1.60;;;11.30;99.90;;;;;;7341306;19;20305;-80
2021/10/23 10:56:02;;;;;;;2.50;2.00;;;11.40;99.90;;;;;;7362688;19;20346;-80
2021/10/23 10:58:50;;;;;;;2.80;1.40;;;11.50;99.90;;;;;;7384706;19;20333;-80
2021/10/23 11:01:29;;;;;;;5.40;1.77;;;11.30;99.90;;;;;;7279833;19;2004412;-80
2021/10/23 11:04:11;;;;;;;2.05;1.80;;;11.20;99.90;;;;;;7384819;19;20893;-80
2021/10/23 11:06:49;;;;;;;1.50;1.40;;;11.30;99.90;;;;;;7278416;19;2004647;-80
2021/10/23 11:09:15;;;;;;;2.17;1.48;;;11.20;99.90;;;;;;7382318;19;20686;-80
2021/10/23 11:11:47;;;;;;;3.70;1.90;;;11.40;99.90;;;;;;7382264;19;20320;-80
2021/10/23 11:14:27;;;;;;;2.67;1.75;;;11.00;99.90;;;;;;7381147;19;20321;-78
2021/10/23 11:16:57;;;;;;;1.60;1.45;;;11.20;99.90;;;;;;7378300;19;20852;-78
2021/10/23 11:19:35;;;;;;;2.80;1.60;;;11.00;99.90;;;;;;7381622;19;20345;-77
2021/10/23 11:22:16;;;;;;;2.40;1.65;;;11.00;99.90;;;;;;7379788;19;20354;-79
2021/10/23 11:24:45;;;;;;;3.80;1.57;;;11.30;99.90;;;;;;7382149;19;20392;-80
2021/10/23 11:27:31;;;;;;;3.58;1.60;;;11.00;99.90;;;;;;7376614;19;20349;-82
2021/10/23 11:30:05;;;;;;;2.38;1.40;;;10.80;99.90;;;;;;7381674;19;20332;-81
2021/10/23 11:32:34;;;;;;;3.35;2.08;;;10.60;99.90;;;;;;7377139;19;20435;-81
2021/10/23 11:35:04;;;;;;;3.65;1.58;;;10.60;99.90;;;;;;7382527;19;20324;-81
2021/10/23 11:37:30;;;;;;;5.15;1.75;;;10.50;99.90;;;;;;7387996;19;20324;-79
2021/10/23 11:40:13;;;;;;;2.20;2.00;;;10.30;99.90;;;;;;7384200;19;20409;-80
2021/10/23 11:42:50;;;;;;;1.57;1.33;;;10.50;99.90;;;;;;7283741;19;2004442;-80
2021/10/23 11:45:17;;;;;;;3.83;1.75;;;10.50;99.90;;;;;;7376995;19;20399;-81
2021/10/23 11:48:10;;;;;;;2.67;1.48;;;10.40;99.90;;;;;;7385144;19;20426;-83
2021/10/23 12:17:44;;;;;;;2.45;1.65;;;11.10;99.90;;;;;;7372375;19;20329;-81
2021/10/23 12:20:39;;;;;;;2.22;1.48;;;11.30;99.90;;;;;;7356774;19;20637;-82
2021/10/23 12:23:11;;;;;;;1.83;1.33;;;11.70;99.90;;;;;;7223194;19;2004428;-80
2021/10/23 12:26:17;;;;;;;3.00;1.70;;;11.90;99.90;;;;;;7346273;19;20328;-81
2021/10/23 13:08:55;;;;;;;1.45;1.35;;;11.40;99.90;;;;;;7342565;19;20320;-81
2021/10/23 13:15:22;;;;;;;3.47;1.52;;;11.30;99.90;;;;;;6974456;19;2004301;-81
2021/10/23 13:17:52;;;;;;;4.93;1.75;;;11.10;99.90;;;;;;7340750;19;20312;-80
2021/10/23 13:20:25;;;;;;;3.30;1.10;;;11.10;99.90;;;;;;7337457;19;20395;-81
2021/10/23 13:23:10;;;;;;;4.57;1.30;;;11.00;99.90;;;;;;7201019;19;2004569;-81
2021/10/23 13:40:42;;;;;;;3.75;2.40;;;10.80;99.90;;;;;;7360974;19;20328;-81
2021/10/23 15:36:41;;;;;;;2.40;2.20;;;9.80;99.90;;;;;;7392103;19;20328;-79
2021/10/23 15:39:08;;;;;;;2.95;2.00;;;9.80;99.90;;;;;;7398169;19;20325;-80
2021/10/23 15:41:48;;;;;;;1.70;1.42;;;9.70;99.90;;;;;;7399481;19;20309;-81
2021/10/23 15:44:14;;;;;;;2.70;1.70;;;9.70;99.90;;;;;;7296646;19;2005296;-81
2021/10/23 15:46:39;;;;;;;3.95;3.20;;;9.70;99.90;;;;;;7397211;19;20329;-80
2021/10/23 15:49:05;;;;;;;2.67;1.53;;;9.70;99.90;;;;;;7388672;19;20329;-80
2021/10/23 15:51:31;;;;;;;4.38;1.35;;;9.60;99.90;;;;;;7345485;19;20420;-80
2021/10/23 15:54:01;;;;;;;1.88;1.48;;;9.50;99.90;;;;;;7385700;19;20724;-79
2021/10/23 15:56:27;;;;;;;20.47;17.43;;;9.40;99.90;;;;;;7385559;19;20396;-80
2021/10/23 15:58:53;;;;;;;109.53;87.25;;;9.30;99.90;;;;;;7388719;19;20423;-80
2021/10/23 16:01:19;;;;;;;8.57;7.00;;;9.30;99.90;;;;;;7370958;19;20325;-80
2021/10/23 16:04:11;;;;;;;2.25;1.85;;;9.30;99.90;;;;;;7398562;19;20321;-79
2021/10/23 16:07:31;;;;;;;2.10;1.60;;;9.10;99.90;;;;;;7284946;19;2004454;-80
2021/10/23 16:10:09;;;;;;;1.30;1.20;;;9.20;99.90;;;;;;7194482;19;2004902;-80
2021/10/23 16:13:13;;;;;;;3.87;2.23;;;9.10;99.90;;;;;;7104455;19;2004379;-80
2021/10/23 16:16:05;;;;;;;3.92;3.20;;;9.00;99.90;;;;;;7222427;19;2004479;-79
2021/10/23 16:19:40;;;;;;;2.45;1.73;;;9.00;99.90;;;;;;7335619;19;20371;-80
2021/10/23 16:23:25;;;;;;;2.00;1.52;;;9.00;99.90;;;;;;7259335;19;2004285;-80
2021/10/23 16:26:32;;;;;;;1.90;1.40;;;8.80;99.90;;;;;;7084507;19;2004454;-81
2021/10/23 16:29:12;;;;;;;2.15;1.33;;;8.70;99.90;;;;;;7184764;19;2004422;-81
2021/10/23 16:32:28;;;;;;;2.67;1.75;;;8.80;99.90;;;;;;7153946;19;2004480;-80
2021/10/23 16:35:28;;;;;;;4.07;2.60;;;8.60;99.90;;;;;;7182191;19;2004446;-80
2021/10/23 16:38:34;;;;;;;2.45;1.58;;;8.50;99.90;;;;;;7355470;19;20315;-80
2021/10/23 16:41:11;;;;;;;1.73;1.60;;;8.50;99.90;;;;;;7287315;19;2004609;-80
2021/10/23 16:44:15;;;;;;;1.40;1.00;;;8.40;99.90;;;;;;7333456;19;20341;-80
2021/10/23 16:47:22;;;;;;;1.10;1.10;;;8.30;99.90;;;;;;7230055;19;2004370;-81
2021/10/23 16:50:02;;;;;;;1.23;1.08;;;8.30;99.90;;;;;;7271493;19;2004256;-79
2021/10/23 16:52:53;;;;;;;1.20;1.20;;;8.30;99.90;;;;;;7197621;19;2004294;-81
2021/10/23 16:55:53;;;;;;;4.75;3.83;;;8.20;99.90;;;;;;7369312;19;20436;-80
2021/10/23 16:58:33;;;;;;;2.93;2.10;;;8.20;99.90;;;;;;7354300;19;20807;-80
2021/10/23 17:01:39;;;;;;;1.67;1.50;;;8.00;99.90;;;;;;7332672;19;20327;-80
2021/10/23 17:04:53;;;;;;;1.58;1.48;;;8.00;99.90;;;;;;7169619;19;2004281;-80
2021/10/23 17:07:34;;;;;;;1.02;1.02;;;8.00;99.90;;;;;;7275125;19;2004487;-80
2021/10/23 17:10:15;;;;;;;4.45;1.50;;;7.90;99.90;;;;;;7279445;19;20347;-81
2021/10/23 17:12:52;;;;;;;4.30;1.70;;;7.90;99.90;;;;;;7323208;19;20855;-80
2021/10/23 17:16:01;;;;;;;1.90;1.40;;;7.80;99.90;;;;;;7265391;19;2004430;-80
2021/10/23 17:18:49;;;;;;;2.13;1.37;;;7.70;99.90;;;;;;7297437;19;2004428;-80
2021/10/23 17:21:30;;;;;;;1.65;1.55;;;7.60;99.90;;;;;;7336929;19;20414;-80
2021/10/23 17:24:28;;;;;;;1.80;1.20;;;7.60;99.90;;;;;;7191001;19;2004380;-80
2021/10/23 17:27:09;;;;;;;1.73;1.35;;;7.50;99.90;;;;;;7313151;19;20331;-80
2021/10/23 17:30:07;;;;;;;1.80;1.60;;;7.40;99.90;;;;;;7128913;19;2004471;-80
2021/10/23 17:32:47;;;;;;;1.40;1.30;;;7.20;99.90;;;;;;7266472;19;20376;-78
2021/10/23 17:35:16;;;;;;;1.65;1.50;;;7.30;99.90;;;;;;7382867;19;20780;-80
2021/10/23 17:37:44;;;;;;;1.55;1.45;;;7.20;99.90;;;;;;7382091;19;20990;-79
2021/10/23 17:40:11;;;;;;;2.27;2.07;;;7.10;99.90;;;;;;7385378;19;20343;-79
2021/10/23 17:42:38;;;;;;;3.63;2.50;;;7.00;99.90;;;;;;7381106;19;20325;-80
2021/10/23 17:45:04;;;;;;;2.30;2.10;;;7.00;99.90;;;;;;7381567;19;20328;-80
2021/10/23 17:47:30;;;;;;;1.50;1.40;;;7.00;99.90;;;;;;7383233;19;20333;-80
2021/10/23 17:49:56;;;;;;;3.05;1.73;;;7.00;99.90;;;;;;7386137;19;20339;-80
2021/10/23 17:52:22;;;;;;;1.60;1.50;;;7.00;99.90;;;;;;7383329;19;20396;-79
2021/10/23 17:54:48;;;;;;;1.53;1.43;;;6.90;99.90;;;;;;7381809;19;20340;-79
2021/10/23 17:57:14;;;;;;;1.80;1.40;;;7.00;99.90;;;;;;7359397;19;20341;-79
2021/10/23 17:59:39;;;;;;;1.20;1.20;;;6.90;99.90;;;;;;7384028;19;20309;-80
2021/10/23 18:02:05;;;;;;;1.45;1.35;;;7.00;99.90;;;;;;7379585;19;20855;-80
2021/10/23 18:04:31;;;;;;;1.93;1.40;;;6.80;99.90;;;;;;7378625;19;20355;-79
2021/10/23 18:06:57;;;;;;;2.95;1.50;;;6.70;99.90;;;;;;7380080;19;20332;-80
2021/10/23 18:09:25;;;;;;;3.00;1.30;;;6.70;99.90;;;;;;7383331;19;20405;-80
2021/10/23 18:11:52;;;;;;;1.83;1.60;;;6.70;99.90;;;;;;7378285;19;20713;-79
2021/10/23 18:14:18;;;;;;;1.40;1.30;;;6.70;99.90;;;;;;7383741;19;20352;-80
2021/10/23 18:16:50;;;;;;;1.90;1.60;;;6.60;99.90;;;;;;7356675;19;20374;-80
2021/10/23 18:19:17;;;;;;;1.75;1.52;;;6.50;99.90;;;;;;7380854;19;20672;-80
2021/10/23 18:21:43;;;;;;;1.40;1.30;;;6.40;99.90;;;;;;7381834;19;20325;-80
2021/10/23 18:24:13;;;;;;;1.60;1.15;;;6.40;99.90;;;;;;7380741;19;20369;-80
2021/10/23 18:26:39;;;;;;;1.80;1.40;;;6.40;99.90;;;;;;7381129;19;20887;-80
2021/10/23 18:29:04;;;;;;;1.73;1.60;;;6.40;99.90;;;;;;7382507;19;20337;-79
2021/10/23 18:31:30;;;;;;;1.45;1.35;;;6.30;99.90;;;;;;7382234;19;20347;-80
2021/10/23 18:33:56;;;;;;;1.70;1.30;;;6.20;99.90;;;;;;7380244;19;20319;-79
2021/10/23 18:36:22;;;;;;;1.38;1.27;;;6.20;99.90;;;;;;7381277;19;20841;-79
2021/10/23 18:38:49;;;;;;;1.15;1.15;;;6.20;99.90;;;;;;7378274;19;20348;-80
2021/10/23 18:41:14;;;;;;;2.53;2.10;;;6.20;99.90;;;;;;7378745;19;20315;-80
2021/10/23 18:43:40;;;;;;;1.73;1.60;;;6.10;99.90;;;;;;7376835;19;20328;-80
2021/10/23 18:46:09;;;;;;;1.38;1.27;;;6.10;99.90;;;;;;7376595;19;20320;-79
2021/10/23 18:48:35;;;;;;;1.40;1.20;;;6.10;99.90;;;;;;7374662;19;20321;-80
2021/10/23 18:51:01;;;;;;;1.55;1.45;;;6.10;99.90;;;;;;7374795;19;20809;-79
2021/10/23 18:53:27;;;;;;;1.73;1.40;;;6.10;99.90;;;;;;7381543;19;20324;-80
2021/10/23 18:55:52;;;;;;;1.40;1.30;;;6.00;99.90;;;;;;7376402;19;20312;-80
2021/10/23 18:58:18;;;;;;;1.50;1.40;;;6.00;99.90;;;;;;7382538;19;20427;-79
2021/10/23 19:00:44;;;;;;;1.80;1.43;;;6.00;99.90;;;;;;7378508;19;20368;-80
2021/10/23 19:03:10;;;;;;;2.10;1.50;;;6.00;99.90;;;;;;7380495;19;20329;-79
2021/10/23 19:05:36;;;;;;;1.80;1.40;;;5.80;99.90;;;;;;7376567;19;20352;-80
2021/10/23 19:08:02;;;;;;;1.85;1.63;;;5.80;99.90;;;;;;7363595;19;20308;-80
2021/10/23 19:10:28;;;;;;;1.80;1.50;;;5.80;99.90;;;;;;7376996;19;20893;-80
2021/10/23 19:12:53;;;;;;;1.67;1.57;;;5.70;99.90;;;;;;7378217;19;20348;-80
2021/10/23 19:15:19;;;;;;;1.83;1.65;;;5.70;99.90;;;;;;7376922;19;20332;-80
2021/10/23 19:17:47;;;;;;;1.52;1.42;;;5.60;99.90;;;;;;7378834;19;20345;-79
2021/10/23 19:20:15;;;;;;;1.60;1.48;;;5.60;99.90;;;;;;7387459;19;20379;-81
2021/10/23 19:22:48;;;;;;;1.92;1.40;;;5.60;99.90;;;;;;7359586;19;20676;-79
2021/10/23 19:25:28;;;;;;;1.70;1.52;;;5.50;99.90;;;;;;7360355;19;20335;-79
2021/10/23 19:27:57;;;;;;;2.10;1.43;;;5.40;99.90;;;;;;7368280;19;20356;-79
2021/10/23 19:30:23;;;;;;;2.30;1.50;;;5.40;99.90;;;;;;7375542;19;20433;-80
2021/10/23 19:32:55;;;;;;;2.42;1.77;;;5.30;99.90;;;;;;7365309;19;20911;-80
2021/10/23 19:35:26;;;;;;;1.58;1.48;;;5.30;99.90;;;;;;7367955;19;20787;-80
2021/10/23 19:37:55;;;;;;;1.97;1.60;;;5.20;99.90;;;;;;7389317;19;20308;-80
2021/10/23 19:40:22;;;;;;;2.25;1.80;;;5.30;99.90;;;;;;7385525;19;20320;-80
2021/10/23 19:42:49;;;;;;;1.67;1.58;;;5.10;99.90;;;;;;7331546;19;20369;-80
2021/10/23 19:45:16;;;;;;;1.80;1.50;;;5.00;99.90;;;;;;7380178;19;20341;-79
2021/10/23 19:47:44;;;;;;;1.58;1.48;;;4.90;99.90;;;;;;7380219;19;20335;-80
2021/10/23 19:50:14;;;;;;;1.83;1.73;;;5.00;99.90;;;;;;7382127;19;20340;-80
2021/10/23 19:52:40;;;;;;;3.67;3.10;;;4.90;99.90;;;;;;7381068;19;20360;-81
2021/10/23 19:55:07;;;;;;;2.70;2.50;;;4.90;99.90;;;;;;7387857;19;20360;-79
2021/10/23 19:57:35;;;;;;;2.37;2.17;;;4.70;99.90;;;;;;7391068;19;20384;-80
2021/10/23 20:00:03;;;;;;;2.72;2.05;;;5.00;99.90;;;;;;7391842;19;20419;-80
2021/10/23 20:02:37;;;;;;;2.25;2.00;;;4.80;99.90;;;;;;7386052;19;20348;-80
2021/10/23 20:05:03;;;;;;;2.20;2.03;;;4.80;99.90;;;;;;7342986;19;20800;-80
2021/10/23 20:07:29;;;;;;;3.55;2.50;;;4.80;99.90;;;;;;7385349;19;20350;-80
2021/10/23 20:09:55;;;;;;;3.30;2.57;;;4.80;99.90;;;;;;7386642;19;20360;-80
2021/10/23 20:12:20;;;;;;;3.70;2.40;;;4.80;99.90;;;;;;7382756;19;20340;-80
2021/10/23 20:14:46;;;;;;;4.57;2.95;;;4.70;99.90;;;;;;7388394;19;20428;-80
2021/10/23 20:17:13;;;;;;;3.43;3.13;;;4.60;99.90;;;;;;7388682;19;20350;-78
2021/10/23 20:19:42;;;;;;;4.22;3.53;;;4.60;99.90;;;;;;7388328;19;20344;-79
2021/10/23 20:22:08;;;;;;;4.80;4.15;;;4.40;99.90;;;;;;7383714;19;20345;-80
2021/10/23 20:24:34;;;;;;;6.20;4.67;;;4.40;99.90;;;;;;7387209;19;20339;-81
2021/10/23 20:27:05;;;;;;;4.88;4.45;;;4.40;99.90;;;;;;7385388;19;20345;-80
2021/10/23 20:29:36;;;;;;;6.07;4.77;;;4.40;99.90;;;;;;7387010;19;20611;-80
2021/10/23 20:32:02;;;;;;;5.30;4.00;;;4.40;99.90;;;;;;7362578;19;20365;-80
2021/10/23 20:34:28;;;;;;;3.92;2.97;;;4.40;99.90;;;;;;7387830;19;20684;-80
2021/10/23 20:36:54;;;;;;;3.00;2.50;;;4.40;99.90;;;;;;7381220;19;20472;-80
2021/10/23 20:39:19;;;;;;;2.60;2.15;;;4.40;99.90;;;;;;7384268;19;20356;-78
2021/10/23 20:41:46;;;;;;;2.95;2.63;;;4.30;99.90;;;;;;7359938;19;20700;-80
2021/10/23 20:44:11;;;;;;;3.20;2.70;;;4.40;99.90;;;;;;7384832;19;20345;-80
2021/10/23 20:46:38;;;;;;;3.07;2.23;;;4.30;99.90;;;;;;7379449;19;20334;-80
2021/10/23 20:49:05;;;;;;;4.50;2.40;;;4.30;99.90;;;;;;7384652;19;20419;-80
2021/10/23 20:51:30;;;;;;;2.97;2.22;;;4.10;99.90;;;;;;7382358;19;20353;-80
2021/10/23 20:54:00;;;;;;;2.77;2.00;;;4.20;99.90;;;;;;7385716;19;20335;-79
2021/10/23 20:56:26;;;;;;;3.85;2.00;;;4.10;99.90;;;;;;7354820;19;20319;-80
2021/10/23 20:58:55;;;;;;;2.80;2.50;;;4.20;99.90;;;;;;7336219;19;20348;-80
2021/10/23 21:01:26;;;;;;;3.40;2.30;;;4.20;99.90;;;;;;7357323;19;20364;-80
2021/10/23 21:04:06;;;;;;;2.47;2.28;;;4.10;99.90;;;;;;7342208;19;21043;-80
2021/10/23 21:06:35;;;;;;;2.65;2.45;;;4.10;99.90;;;;;;7254726;19;2004337;-79
2021/10/23 21:09:06;;;;;;;3.38;2.63;;;4.00;99.90;;;;;;7381271;19;20383;-80
2021/10/23 21:11:35;;;;;;;4.53;2.70;;;3.90;99.90;;;;;;7356655;19;20363;-80
2021/10/23 21:14:12;;;;;;;2.95;2.75;;;3.90;99.90;;;;;;7379298;19;20349;-80
2021/10/23 21:16:50;;;;;;;5.63;3.30;;;3.90;99.90;;;;;;7334280;19;20372;-79
2021/10/23 21:19:20;;;;;;;2.75;2.55;;;3.90;99.90;;;;;;7358926;19;21005;-80
2021/10/23 21:21:46;;;;;;;3.63;3.10;;;3.80;99.90;;;;;;7354614;19;20335;-80
2021/10/23 21:24:14;;;;;;;3.63;2.92;;;3.90;99.90;;;;;;7381896;19;20384;-79
2021/10/23 21:26:39;;;;;;;3.10;2.80;;;3.80;99.90;;;;;;7354464;19;20356;-80
2021/10/23 21:29:05;;;;;;;4.47;3.00;;;3.80;99.90;;;;;;7380492;19;20409;-79
2021/10/23 21:31:35;;;;;;;3.27;2.93;;;3.80;99.90;;;;;;7377147;19;20356;-80
2021/10/23 21:34:04;;;;;;;4.07;2.97;;;3.80;99.90;;;;;;7382866;19;20360;-79
2021/10/23 21:36:30;;;;;;;2.90;2.40;;;3.80;99.90;;;;;;7378309;19;20359;-79
2021/10/23 21:38:56;;;;;;;3.38;2.80;;;3.80;99.90;;;;;;7380491;19;20321;-81
2021/10/23 21:41:25;;;;;;;3.75;2.90;;;3.80;99.90;;;;;;7340314;19;20364;-80
2021/10/23 21:43:50;;;;;;;4.53;3.90;;;3.70;99.90;;;;;;7367488;19;20938;-80
2021/10/23 21:46:16;;;;;;;7.00;5.10;;;3.70;99.90;;;;;;7375223;19;20364;-80
2021/10/23 21:48:51;;;;;;;7.95;6.65;;;3.70;99.90;;;;;;7374087;19;21009;-79
2021/10/23 21:51:26;;;;;;;7.50;5.95;;;3.70;99.90;;;;;;7371384;19;21214;-79
2021/10/23 21:53:52;;;;;;;5.53;4.93;;;3.50;99.90;;;;;;7357750;19;20392;-80
2021/10/23 21:56:23;;;;;;;11.73;8.40;;;3.40;99.90;;;;;;7375299;19;20351;-80
2021/10/23 21:59:00;;;;;;;19.17;11.10;;;3.40;99.90;;;;;;7376571;19;20341;-80
2021/10/23 22:01:27;;;;;;;11.05;9.02;;;3.30;99.90;;;;;;7351951;19;20886;-79
2021/10/23 22:03:56;;;;;;;11.90;8.70;;;3.30;99.90;;;;;;7342281;19;20360;-79
2021/10/23 22:06:29;;;;;;;9.82;7.63;;;3.30;99.90;;;;;;7373659;19;20317;-80
2021/10/23 22:08:56;;;;;;;8.15;6.68;;;3.30;99.90;;;;;;7374514;19;20327;-80
2021/10/23 22:11:22;;;;;;;11.20;7.13;;;3.30;99.90;;;;;;7351597;19;20353;-79
2021/10/23 22:13:48;;;;;;;10.40;7.38;;;3.30;99.90;;;;;;7376691;19;20340;-80
2021/10/23 22:16:20;;;;;;;7.20;6.50;;;3.30;99.90;;;;;;7371410;19;20371;-79
2021/10/23 22:18:46;;;;;;;10.48;7.35;;;3.30;99.90;;;;;;7375891;19;20389;-80
2021/10/23 22:21:13;;;;;;;7.93;6.35;;;3.30;99.90;;;;;;7376078;19;20360;-79
2021/10/23 22:23:39;;;;;;;9.65;6.35;;;3.20;99.90;;;;;;7377937;19;21015;-80
2021/10/23 22:26:08;;;;;;;6.80;6.13;;;3.20;99.90;;;;;;7370356;19;20324;-80
2021/10/23 22:28:37;;;;;;;6.55;5.50;;;3.20;99.90;;;;;;7375158;19;20316;-80
2021/10/23 22:31:03;;;;;;;8.07;5.80;;;3.10;99.90;;;;;;7375697;19;20347;-80
2021/10/23 22:33:29;;;;;;;5.50;5.00;;;3.10;99.90;;;;;;7378083;19;20351;-79
2021/10/23 22:35:56;;;;;;;6.57;4.35;;;3.10;99.90;;;;;;7382710;19;20341;-80
2021/10/23 22:38:24;;;;;;;5.32;4.60;;;3.10;99.90;;;;;;7386924;19;20316;-80
2021/10/23 22:40:50;;;;;;;5.43;4.47;;;3.10;99.90;;;;;;7380504;19;20709;-80
2021/10/23 22:43:16;;;;;;;4.70;4.22;;;3.00;99.90;;;;;;7382881;19;20335;-80
2021/10/23 22:45:44;;;;;;;4.30;3.90;;;3.10;99.90;;;;;;7382960;19;20339;-79